EDT,Max TemperatureF,Mean TemperatureF,Min TemperatureF,Max Dew PointF,MeanDew PointF,Min DewpointF,Max Humidity, Mean Humidity, Min Humidity, Max Sea Level PressureIn, Mean Sea Level PressureIn, Min Sea Level PressureIn, Max VisibilityMiles, Mean VisibilityMiles, Min VisibilityMiles, Max Wind SpeedMPH, Mean Wind SpeedMPH, Max Gust SpeedMPH,PrecipitationIn, CloudCover, Events, WindDirDegrees
2013-10-1,84,66,51,60,54,48,94,78,41,30.10,30.05,30.01,10,5,0,9,1,,0.00,0,Fog,239
2013-10-2,88,76,64,63,60,57,87,66,35,30.10,30.06,30.03,10,10,8,7,3,,0.00,0,,258
2013-10-3,88,74,60,64,60,57,90,74,39,30.12,30.09,30.06,10,6,0,9,1,,0.01,0,Fog,243
2013-10-4,90,79,69,66,64,62,87,67,40,30.11,30.07,30.03,10,10,9,10,7,,0.00,1,,226
2013-10-5,91,78,66,66,64,62,88,65,39,30.10,30.07,30.03,10,9,2,9,2,,0.00,0,,160
2013-10-6,89,79,70,67,65,62,84,63,42,30.07,30.03,29.98,10,10,10,13,7,22,0.00,1,,199
2013-10-7,89,76,64,72,68,57,88,78,48,30.02,29.92,29.85,10,9,2,21,10,31,0.45,7,Rain,230
2013-10-8,66,65,64,55,51,46,73,59,48,30.21,30.16,30.03,10,10,10,15,11,26,0.00,7,,33
2013-10-9,66,64,62,61,59,50,88,82,56,30.18,30.11,30.02,10,4,1,22,14,31,3.00,7,Rain,31
2013-10-10,69,66,64,65,63,61,88,87,83,30.00,29.91,29.86,10,4,1,17,13,30,0.82,8,Rain,9
2013-10-11,69,66,64,64,62,60,90,86,81,29.92,29.87,29.84,10,6,1,13,8,,0.00,8,,323
2013-10-12,73,70,68,68,66,64,90,86,81,30.07,29.98,29.90,10,5,2,13,6,17,0.21,8,Rain,27
2013-10-13,73,70,68,68,65,61,90,84,75,30.23,30.14,30.07,10,5,1,16,8,24,0.10,8,Rain,34
2013-10-14,75,66,60,63,60,54,88,76,59,30.25,30.22,30.19,10,9,2,15,10,22,0.01,6,,31
2013-10-15,70,64,59,63,59,54,87,81,73,30.19,30.13,30.05,10,10,7,12,7,18,0.00,7,,14
2013-10-16,77,72,66,63,61,59,88,77,56,30.06,30.01,29.96,10,9,3,9,5,,0.00,5,,47
2013-10-17,80,72,64,65,62,60,87,73,52,29.95,29.89,29.82,10,10,9,13,5,,0.00,3,,213
2013-10-18,73,64,55,65,55,47,84,68,42,30.04,29.96,29.85,10,10,9,10,6,,0.00,3,,314
2013-10-19,69,62,55,64,59,52,89,80,70,30.00,29.91,29.83,10,9,5,9,3,,0.00,7,Rain,193
2013-10-20,66,56,46,61,45,36,86,64,35,30.13,30.02,29.87,10,10,9,14,6,18,0.00,0,,341
2013-10-21,70,56,42,51,45,39,89,73,40,30.18,30.11,30.02,10,8,1,10,1,,0.00,0,,114
2013-10-22,71,61,53,57,53,48,86,72,54,29.98,29.89,29.81,10,10,9,9,3,,0.00,1,,232
2013-10-23,64,58,50,57,50,38,90,76,52,29.93,29.72,29.66,10,7,1,14,5,22,0.24,6,Rain,323
2013-10-24,60,50,42,40,35,29,79,57,33,30.15,30.06,29.95,10,10,10,13,6,20,0.00,2,Rain,290
2013-10-25,59,49,39,36,32,28,83,57,31,30.34,30.26,30.15,10,10,10,13,6,18,0.00,0,,326
2013-10-26,63,48,33,39,32,26,89,60,25,30.32,30.21,30.03,10,8,2,17,4,24,0.00,1,,234
2013-10-27,68,56,45,46,38,34,86,55,30,30.14,30.07,30.01,10,10,10,10,6,,0.00,1,,268
2013-10-28,68,54,41,51,44,37,93,79,52,30.27,30.20,30.14,10,6,0,9,1,,0.00,0,Fog-Rain,213
2013-10-29,71,60,50,54,49,44,90,75,38,30.35,30.30,30.26,10,7,0,9,1,,0.00,3,Fog,69
2013-10-30,73,62,53,58,53,48,94,76,55,30.32,30.26,30.18,10,7,0,10,1,,0.00,4,Fog-Rain,212
2013-10-31,77,68,60,65,58,54,83,71,50,30.20,30.09,29.94,10,10,9,17,6,23,0.00,1,,200